sensor_id;sensor_type;location;lat;lon;timestamp;P1;durP1;ratioP1;P2;durP2;ratioP2
1258;SDS011;619;51.472;6.628;2022-12-24T00:00:03;20.63;;;4.60;;
1258;SDS011;619;51.472;6.628;2022-12-24T00:02:30;19.40;;;5.27;;
1258;SDS011;619;51.472;6.628;2022-12-24T00:04:58;15.90;;;5.43;;
1258;SDS011;619;51.472;6.628;2022-12-24T00:07:26;16.70;;;4.93;;
1258;SDS011;619;51.472;6.628;2022-12-24T00:09:56;9.70;;;3.20;;
1258;SDS011;619;51.472;6.628;2022-12-24T00:12:22;15.60;;;4.70;;
1258;SDS011;619;51.472;6.628;2022-12-24T00:14:50;13.57;;;5.10;;
1258;SDS011;619;51.472;6.628;2022-12-24T00:17:18;16.27;;;4.10;;
1258;SDS011;619;51.472;6.628;2022-12-24T00:19:43;11.60;;;3.97;;
1258;SDS011;619;51.472;6.628;2022-12-24T00:22:14;18.30;;;5.30;;
1258;SDS011;619;51.472;6.628;2022-12-24T00:24:41;18.23;;;4.97;;
1258;SDS011;619;51.472;6.628;2022-12-24T00:27:07;19.67;;;5.40;;
1258;SDS011;619;51.472;6.628;2022-12-24T00:29:33;22.60;;;5.03;;
1258;SDS011;619;51.472;6.628;2022-12-24T00:31:58;15.63;;;5.00;;
1258;SDS011;619;51.472;6.628;2022-12-24T00:34:32;18.67;;;6.03;;
1258;SDS011;619;51.472;6.628;2022-12-24T00:36:59;14.90;;;5.37;;
1258;SDS011;619;51.472;6.628;2022-12-24T00:39:28;23.27;;;5.57;;
1258;SDS011;619;51.472;6.628;2022-12-24T00:41:56;19.40;;;5.10;;
1258;SDS011;619;51.472;6.628;2022-12-24T00:44:24;19.73;;;5.23;;
1258;SDS011;619;51.472;6.628;2022-12-24T00:46:52;13.90;;;4.87;;
1258;SDS011;619;51.472;6.628;2022-12-24T00:49:22;20.30;;;5.10;;
1258;SDS011;619;51.472;6.628;2022-12-24T00:51:50;18.73;;;5.10;;
1258;SDS011;619;51.472;6.628;2022-12-24T00:54:16;13.83;;;4.80;;
1258;SDS011;619;51.472;6.628;2022-12-24T00:56:41;17.53;;;5.00;;
1258;SDS011;619;51.472;6.628;2022-12-24T00:59:07;22.83;;;5.13;;
1258;SDS011;619;51.472;6.628;2022-12-24T01:01:32;19.97;;;5.80;;
1258;SDS011;619;51.472;6.628;2022-12-24T01:04:00;19.73;;;5.17;;
1258;SDS011;619;51.472;6.628;2022-12-24T01:06:44;16.03;;;4.93;;
1258;SDS011;619;51.472;6.628;2022-12-24T01:09:09;18.40;;;4.70;;
1258;SDS011;619;51.472;6.628;2022-12-24T01:11:35;11.60;;;4.47;;
1258;SDS011;619;51.472;6.628;2022-12-24T01:14:00;16.20;;;4.80;;
1258;SDS011;619;51.472;6.628;2022-12-24T01:16:28;18.33;;;5.30;;
1258;SDS011;619;51.472;6.628;2022-12-24T01:18:54;24.57;;;6.77;;
1258;SDS011;619;51.472;6.628;2022-12-24T01:21:22;17.23;;;4.57;;
1258;SDS011;619;51.472;6.628;2022-12-24T01:23:50;21.13;;;4.73;;
1258;SDS011;619;51.472;6.628;2022-12-24T01:26:19;19.33;;;5.70;;
1258;SDS011;619;51.472;6.628;2022-12-24T01:28:46;21.27;;;6.20;;
1258;SDS011;619;51.472;6.628;2022-12-24T01:31:13;19.70;;;5.50;;
1258;SDS011;619;51.472;6.628;2022-12-24T01:33:40;16.90;;;5.90;;
1258;SDS011;619;51.472;6.628;2022-12-24T01:36:06;23.13;;;5.77;;
1258;SDS011;619;51.472;6.628;2022-12-24T01:38:34;23.23;;;6.30;;
1258;SDS011;619;51.472;6.628;2022-12-24T01:41:00;15.73;;;5.23;;
1258;SDS011;619;51.472;6.628;2022-12-24T01:43:46;16.93;;;4.10;;
1258;SDS011;619;51.472;6.628;2022-12-24T01:46:17;22.73;;;6.77;;
1258;SDS011;619;51.472;6.628;2022-12-24T01:49:02;17.53;;;4.63;;
1258;SDS011;619;51.472;6.628;2022-12-24T01:51:38;15.27;;;5.80;;
1258;SDS011;619;51.472;6.628;2022-12-24T01:54:10;21.90;;;6.53;;
1258;SDS011;619;51.472;6.628;2022-12-24T01:56:43;23.27;;;5.90;;
1258;SDS011;619;51.472;6.628;2022-12-24T01:59:16;17.27;;;5.43;;
1258;SDS011;619;51.472;6.628;2022-12-24T02:01:46;21.03;;;5.10;;
1258;SDS011;619;51.472;6.628;2022-12-24T02:06:44;21.90;;;6.00;;
1258;SDS011;619;51.472;6.628;2022-12-24T02:09:12;15.83;;;5.80;;
1258;SDS011;619;51.472;6.628;2022-12-24T02:11:40;15.93;;;5.87;;
1258;SDS011;619;51.472;6.628;2022-12-24T02:14:08;19.23;;;4.60;;
1258;SDS011;619;51.472;6.628;2022-12-24T02:38:12;22.00;;;5.80;;
1258;SDS011;619;51.472;6.628;2022-12-24T02:40:50;19.83;;;6.43;;
1258;SDS011;619;51.472;6.628;2022-12-24T02:43:28;21.13;;;6.40;;
1258;SDS011;619;51.472;6.628;2022-12-24T02:46:02;17.00;;;5.63;;
1258;SDS011;619;51.472;6.628;2022-12-24T02:48:32;24.57;;;5.50;;
1258;SDS011;619;51.472;6.628;2022-12-24T02:51:01;17.87;;;5.00;;
1258;SDS011;619;51.472;6.628;2022-12-24T02:53:31;34.43;;;5.83;;
1258;SDS011;619;51.472;6.628;2022-12-24T03:01:16;13.50;;;5.57;;
1258;SDS011;619;51.472;6.628;2022-12-24T03:06:54;27.13;;;7.57;;
1258;SDS011;619;51.472;6.628;2022-12-24T03:09:26;21.43;;;5.77;;
1258;SDS011;619;51.472;6.628;2022-12-24T03:11:58;21.83;;;6.43;;
1258;SDS011;619;51.472;6.628;2022-12-24T03:14:32;25.20;;;6.23;;
1258;SDS011;619;51.472;6.628;2022-12-24T03:17:02;22.93;;;4.90;;
1258;SDS011;619;51.472;6.628;2022-12-24T03:19:28;20.17;;;5.67;;
1258;SDS011;619;51.472;6.628;2022-12-24T03:21:55;19.90;;;4.60;;
1258;SDS011;619;51.472;6.628;2022-12-24T03:24:25;22.30;;;6.00;;
1258;SDS011;619;51.472;6.628;2022-12-24T03:26:53;19.07;;;5.37;;
1258;SDS011;619;51.472;6.628;2022-12-24T03:29:19;22.63;;;4.67;;
1258;SDS011;619;51.472;6.628;2022-12-24T03:31:49;19.63;;;5.63;;
1258;SDS011;619;51.472;6.628;2022-12-24T03:34:19;23.90;;;6.10;;
1258;SDS011;619;51.472;6.628;2022-12-24T03:36:47;13.90;;;4.87;;
1258;SDS011;619;51.472;6.628;2022-12-24T03:39:12;21.90;;;6.00;;
1258;SDS011;619;51.472;6.628;2022-12-24T03:41:40;16.90;;;5.23;;
1258;SDS011;619;51.472;6.628;2022-12-24T03:44:08;22.27;;;5.87;;
1258;SDS011;619;51.472;6.628;2022-12-24T03:46:36;20.17;;;6.10;;
1258;SDS011;619;51.472;6.628;2022-12-24T03:49:06;18.70;;;5.47;;
1258;SDS011;619;51.472;6.628;2022-12-24T03:51:36;17.83;;;5.50;;
1258;SDS011;619;51.472;6.628;2022-12-24T03:54:04;21.80;;;5.53;;
1258;SDS011;619;51.472;6.628;2022-12-24T03:56:32;15.70;;;4.70;;
1258;SDS011;619;51.472;6.628;2022-12-24T03:59:00;26.67;;;5.63;;
1258;SDS011;619;51.472;6.628;2022-12-24T04:01:28;14.30;;;4.60;;
1258;SDS011;619;51.472;6.628;2022-12-24T04:03:54;19.40;;;5.27;;
1258;SDS011;619;51.472;6.628;2022-12-24T04:06:19;21.73;;;6.10;;
1258;SDS011;619;51.472;6.628;2022-12-24T04:08:45;19.20;;;5.40;;
1258;SDS011;619;51.472;6.628;2022-12-24T04:11:14;14.33;;;4.20;;
1258;SDS011;619;51.472;6.628;2022-12-24T04:13:45;16.30;;;5.03;;
1258;SDS011;619;51.472;6.628;2022-12-24T04:16:11;23.63;;;5.97;;
1258;SDS011;619;51.472;6.628;2022-12-24T04:18:41;16.10;;;5.37;;
1258;SDS011;619;51.472;6.628;2022-12-24T04:21:10;20.40;;;4.20;;
1258;SDS011;619;51.472;6.628;2022-12-24T04:23:37;19.67;;;5.60;;
1258;SDS011;619;51.472;6.628;2022-12-24T04:26:04;16.80;;;5.27;;
1258;SDS011;619;51.472;6.628;2022-12-24T04:28:32;19.80;;;5.27;;
1258;SDS011;619;51.472;6.628;2022-12-24T04:31:02;11.77;;;4.10;;
1258;SDS011;619;51.472;6.628;2022-12-24T04:33:33;15.07;;;4.07;;
1258;SDS011;619;51.472;6.628;2022-12-24T04:35:59;20.77;;;4.93;;
1258;SDS011;619;51.472;6.628;2022-12-24T04:38:26;19.50;;;5.00;;
1258;SDS011;619;51.472;6.628;2022-12-24T04:43:24;10.33;;;3.73;;
1258;SDS011;619;51.472;6.628;2022-12-24T04:45:50;9.17;;;3.27;;
1258;SDS011;619;51.472;6.628;2022-12-24T04:48:18;16.53;;;4.20;;
1258;SDS011;619;51.472;6.628;2022-12-24T04:50:46;7.73;;;3.13;;
1258;SDS011;619;51.472;6.628;2022-12-24T04:53:16;14.67;;;4.47;;
1258;SDS011;619;51.472;6.628;2022-12-24T04:55:46;11.53;;;4.73;;
1258;SDS011;619;51.472;6.628;2022-12-24T04:58:14;11.73;;;3.87;;
1258;SDS011;619;51.472;6.628;2022-12-24T05:00:42;15.07;;;4.20;;
1258;SDS011;619;51.472;6.628;2022-12-24T05:03:08;10.67;;;3.53;;
1258;SDS011;619;51.472;6.628;2022-12-24T05:05:35;11.70;;;3.57;;
1258;SDS011;619;51.472;6.628;2022-12-24T05:08:03;8.80;;;3.33;;
1258;SDS011;619;51.472;6.628;2022-12-24T05:10:30;7.77;;;3.00;;
1258;SDS011;619;51.472;6.628;2022-12-24T05:12:56;14.93;;;4.17;;
1258;SDS011;619;51.472;6.628;2022-12-24T05:15:21;15.97;;;3.23;;
1258;SDS011;619;51.472;6.628;2022-12-24T05:17:49;13.40;;;3.73;;
1258;SDS011;619;51.472;6.628;2022-12-24T05:20:15;14.20;;;4.23;;
1258;SDS011;619;51.472;6.628;2022-12-24T05:22:41;10.77;;;3.40;;
1258;SDS011;619;51.472;6.628;2022-12-24T05:25:26;14.73;;;4.20;;
1258;SDS011;619;51.472;6.628;2022-12-24T05:28:16;16.27;;;3.90;;
1258;SDS011;619;51.472;6.628;2022-12-24T05:30:42;13.13;;;4.27;;
1258;SDS011;619;51.472;6.628;2022-12-24T05:33:10;16.73;;;4.60;;
1258;SDS011;619;51.472;6.628;2022-12-24T05:35:38;8.83;;;3.40;;
1258;SDS011;619;51.472;6.628;2022-12-24T05:38:04;11.17;;;3.57;;
1258;SDS011;619;51.472;6.628;2022-12-24T05:40:31;11.97;;;3.70;;
1258;SDS011;619;51.472;6.628;2022-12-24T05:42:57;18.50;;;3.80;;
1258;SDS011;619;51.472;6.628;2022-12-24T05:45:25;15.43;;;4.47;;
1258;SDS011;619;51.472;6.628;2022-12-24T05:47:50;14.20;;;5.23;;
1258;SDS011;619;51.472;6.628;2022-12-24T05:50:18;14.30;;;5.17;;
1258;SDS011;619;51.472;6.628;2022-12-24T05:52:44;10.10;;;4.77;;
1258;SDS011;619;51.472;6.628;2022-12-24T05:55:09;13.60;;;4.80;;
1258;SDS011;619;51.472;6.628;2022-12-24T05:57:38;16.50;;;4.40;;
1258;SDS011;619;51.472;6.628;2022-12-24T06:00:04;16.20;;;4.40;;
1258;SDS011;619;51.472;6.628;2022-12-24T06:02:33;13.43;;;4.10;;
1258;SDS011;619;51.472;6.628;2022-12-24T06:05:01;12.40;;;4.40;;
1258;SDS011;619;51.472;6.628;2022-12-24T06:07:28;13.97;;;4.30;;
1258;SDS011;619;51.472;6.628;2022-12-24T06:09:59;13.43;;;4.13;;
1258;SDS011;619;51.472;6.628;2022-12-24T06:12:27;12.93;;;4.30;;
1258;SDS011;619;51.472;6.628;2022-12-24T06:14:57;10.10;;;3.47;;
1258;SDS011;619;51.472;6.628;2022-12-24T06:17:23;25.60;;;5.67;;
1258;SDS011;619;51.472;6.628;2022-12-24T06:19:49;15.73;;;4.30;;
1258;SDS011;619;51.472;6.628;2022-12-24T06:22:17;10.07;;;3.83;;
1258;SDS011;619;51.472;6.628;2022-12-24T06:24:43;10.93;;;3.73;;
1258;SDS011;619;51.472;6.628;2022-12-24T06:27:11;14.67;;;4.03;;
1258;SDS011;619;51.472;6.628;2022-12-24T06:29:36;10.77;;;3.40;;
1258;SDS011;619;51.472;6.628;2022-12-24T06:32:04;15.20;;;4.27;;
1258;SDS011;619;51.472;6.628;2022-12-24T06:34:30;13.13;;;3.90;;
1258;SDS011;619;51.472;6.628;2022-12-24T06:36:56;17.20;;;5.17;;
1258;SDS011;619;51.472;6.628;2022-12-24T06:39:21;15.10;;;4.57;;
1258;SDS011;619;51.472;6.628;2022-12-24T06:41:47;15.17;;;3.73;;
1258;SDS011;619;51.472;6.628;2022-12-24T06:44:12;14.57;;;4.27;;
1258;SDS011;619;51.472;6.628;2022-12-24T06:46:40;13.43;;;3.77;;
1258;SDS011;619;51.472;6.628;2022-12-24T06:49:08;15.23;;;4.73;;
1258;SDS011;619;51.472;6.628;2022-12-24T06:51:39;14.40;;;4.47;;
1258;SDS011;619;51.472;6.628;2022-12-24T06:54:05;12.63;;;3.83;;
1258;SDS011;619;51.472;6.628;2022-12-24T06:56:31;8.63;;;4.07;;
1258;SDS011;619;51.472;6.628;2022-12-24T06:58:56;10.87;;;3.80;;
1258;SDS011;619;51.472;6.628;2022-12-24T07:01:27;13.17;;;3.90;;
1258;SDS011;619;51.472;6.628;2022-12-24T07:03:52;13.47;;;4.93;;
1258;SDS011;619;51.472;6.628;2022-12-24T07:06:25;14.63;;;5.10;;
1258;SDS011;619;51.472;6.628;2022-12-24T07:08:52;17.63;;;6.03;;
1258;SDS011;619;51.472;6.628;2022-12-24T07:11:18;10.53;;;4.77;;
1258;SDS011;619;51.472;6.628;2022-12-24T07:13:44;22.53;;;5.03;;
1258;SDS011;619;51.472;6.628;2022-12-24T07:16:10;14.03;;;4.77;;
1258;SDS011;619;51.472;6.628;2022-12-24T07:18:38;18.07;;;4.43;;
1258;SDS011;619;51.472;6.628;2022-12-24T07:21:04;12.93;;;4.17;;
1258;SDS011;619;51.472;6.628;2022-12-24T07:23:34;13.50;;;4.83;;
1258;SDS011;619;51.472;6.628;2022-12-24T07:26:03;18.40;;;5.33;;
1258;SDS011;619;51.472;6.628;2022-12-24T07:28:30;19.27;;;4.83;;
1258;SDS011;619;51.472;6.628;2022-12-24T07:30:58;22.00;;;4.83;;
1258;SDS011;619;51.472;6.628;2022-12-24T07:33:28;22.67;;;5.73;;
1258;SDS011;619;51.472;6.628;2022-12-24T07:36:01;18.10;;;4.83;;
1258;SDS011;619;51.472;6.628;2022-12-24T07:38:29;15.40;;;4.10;;
1258;SDS011;619;51.472;6.628;2022-12-24T07:40:58;21.40;;;5.40;;
1258;SDS011;619;51.472;6.628;2022-12-24T07:43:24;15.30;;;5.03;;
1258;SDS011;619;51.472;6.628;2022-12-24T07:45:53;21.90;;;5.50;;
1258;SDS011;619;51.472;6.628;2022-12-24T07:48:20;15.30;;;5.13;;
1258;SDS011;619;51.472;6.628;2022-12-24T07:50:49;11.73;;;4.23;;
1258;SDS011;619;51.472;6.628;2022-12-24T07:53:15;15.70;;;5.17;;
1258;SDS011;619;51.472;6.628;2022-12-24T07:55:40;23.70;;;5.33;;
1258;SDS011;619;51.472;6.628;2022-12-24T07:58:09;17.53;;;6.30;;
1258;SDS011;619;51.472;6.628;2022-12-24T08:00:37;14.93;;;4.57;;
1258;SDS011;619;51.472;6.628;2022-12-24T08:03:02;14.57;;;5.70;;
1258;SDS011;619;51.472;6.628;2022-12-24T08:05:28;18.67;;;5.17;;
1258;SDS011;619;51.472;6.628;2022-12-24T08:08:00;17.70;;;4.63;;
1258;SDS011;619;51.472;6.628;2022-12-24T08:10:26;10.93;;;4.60;;
1258;SDS011;619;51.472;6.628;2022-12-24T08:12:54;14.27;;;4.73;;
1258;SDS011;619;51.472;6.628;2022-12-24T08:15:20;15.13;;;4.97;;
1258;SDS011;619;51.472;6.628;2022-12-24T08:17:45;13.30;;;4.27;;
1258;SDS011;619;51.472;6.628;2022-12-24T08:20:11;22.73;;;6.33;;
1258;SDS011;619;51.472;6.628;2022-12-24T08:22:39;18.00;;;5.30;;
1258;SDS011;619;51.472;6.628;2022-12-24T08:25:04;18.80;;;5.40;;
1258;SDS011;619;51.472;6.628;2022-12-24T08:27:31;19.17;;;5.10;;
1258;SDS011;619;51.472;6.628;2022-12-24T08:29:56;18.10;;;4.83;;
1258;SDS011;619;51.472;6.628;2022-12-24T08:32:22;15.17;;;4.80;;
1258;SDS011;619;51.472;6.628;2022-12-24T08:34:47;19.67;;;6.20;;
1258;SDS011;619;51.472;6.628;2022-12-24T08:37:13;21.43;;;5.80;;
1258;SDS011;619;51.472;6.628;2022-12-24T08:39:39;19.80;;;5.40;;
1258;SDS011;619;51.472;6.628;2022-12-24T08:42:04;22.37;;;5.67;;
1258;SDS011;619;51.472;6.628;2022-12-24T08:44:30;19.07;;;5.50;;
1258;SDS011;619;51.472;6.628;2022-12-24T08:46:58;18.67;;;5.57;;
1258;SDS011;619;51.472;6.628;2022-12-24T08:49:24;15.63;;;4.93;;
1258;SDS011;619;51.472;6.628;2022-12-24T08:51:52;15.40;;;5.67;;
1258;SDS011;619;51.472;6.628;2022-12-24T08:54:17;22.47;;;5.53;;
1258;SDS011;619;51.472;6.628;2022-12-24T08:56:43;20.37;;;6.30;;
1258;SDS011;619;51.472;6.628;2022-12-24T08:59:10;24.83;;;6.57;;
1258;SDS011;619;51.472;6.628;2022-12-24T09:01:36;22.77;;;5.40;;
1258;SDS011;619;51.472;6.628;2022-12-24T09:04:02;12.90;;;5.10;;
1258;SDS011;619;51.472;6.628;2022-12-24T09:06:28;24.17;;;4.93;;
1258;SDS011;619;51.472;6.628;2022-12-24T09:08:54;21.70;;;6.47;;
1258;SDS011;619;51.472;6.628;2022-12-24T09:11:20;18.30;;;5.47;;
1258;SDS011;619;51.472;6.628;2022-12-24T09:13:46;19.87;;;5.80;;
1258;SDS011;619;51.472;6.628;2022-12-24T09:16:12;12.10;;;5.00;;
1258;SDS011;619;51.472;6.628;2022-12-24T09:18:40;19.13;;;6.00;;
1258;SDS011;619;51.472;6.628;2022-12-24T09:21:10;18.17;;;5.77;;
1258;SDS011;619;51.472;6.628;2022-12-24T09:23:42;14.33;;;5.17;;
1258;SDS011;619;51.472;6.628;2022-12-24T09:26:11;21.30;;;5.27;;
1258;SDS011;619;51.472;6.628;2022-12-24T09:28:39;17.93;;;5.60;;
1258;SDS011;619;51.472;6.628;2022-12-24T09:31:05;14.67;;;5.43;;
1258;SDS011;619;51.472;6.628;2022-12-24T09:33:33;22.43;;;6.20;;
1258;SDS011;619;51.472;6.628;2022-12-24T09:36:00;18.10;;;5.50;;
1258;SDS011;619;51.472;6.628;2022-12-24T09:38:27;20.07;;;6.20;;
1258;SDS011;619;51.472;6.628;2022-12-24T09:40:53;18.37;;;5.83;;
1258;SDS011;619;51.472;6.628;2022-12-24T09:43:23;29.40;;;7.10;;
1258;SDS011;619;51.472;6.628;2022-12-24T09:46:05;16.97;;;6.13;;
1258;SDS011;619;51.472;6.628;2022-12-24T09:48:47;24.57;;;6.20;;
1258;SDS011;619;51.472;6.628;2022-12-24T09:51:23;16.50;;;5.77;;
1258;SDS011;619;51.472;6.628;2022-12-24T09:56:32;23.23;;;6.90;;
1258;SDS011;619;51.472;6.628;2022-12-24T09:59:03;15.80;;;4.27;;
1258;SDS011;619;51.472;6.628;2022-12-24T10:01:32;17.57;;;5.20;;
1258;SDS011;619;51.472;6.628;2022-12-24T10:04:03;15.50;;;5.60;;
1258;SDS011;619;51.472;6.628;2022-12-24T10:06:38;18.30;;;6.40;;
1258;SDS011;619;51.472;6.628;2022-12-24T10:12:56;19.23;;;6.27;;
1258;SDS011;619;51.472;6.628;2022-12-24T10:15:23;24.87;;;5.47;;
1258;SDS011;619;51.472;6.628;2022-12-24T10:21:15;17.93;;;5.17;;
1258;SDS011;619;51.472;6.628;2022-12-24T10:26:24;16.50;;;5.10;;
1258;SDS011;619;51.472;6.628;2022-12-24T10:28:56;16.90;;;4.90;;
1258;SDS011;619;51.472;6.628;2022-12-24T10:31:25;21.93;;;6.57;;
1258;SDS011;619;51.472;6.628;2022-12-24T10:33:56;19.33;;;5.50;;
1258;SDS011;619;51.472;6.628;2022-12-24T10:36:28;21.10;;;7.40;;
1258;SDS011;619;51.472;6.628;2022-12-24T10:38:54;21.83;;;6.50;;
1258;SDS011;619;51.472;6.628;2022-12-24T10:41:20;22.83;;;6.17;;
1258;SDS011;619;51.472;6.628;2022-12-24T10:43:48;16.20;;;7.00;;
1258;SDS011;619;51.472;6.628;2022-12-24T10:49:02;19.23;;;6.20;;
1258;SDS011;619;51.472;6.628;2022-12-24T10:51:44;19.60;;;6.30;;
1258;SDS011;619;51.472;6.628;2022-12-24T10:54:20;16.87;;;5.93;;
1258;SDS011;619;51.472;6.628;2022-12-24T10:56:48;23.10;;;6.67;;
1258;SDS011;619;51.472;6.628;2022-12-24T11:02:29;19.63;;;6.80;;
1258;SDS011;619;51.472;6.628;2022-12-24T11:05:04;18.90;;;6.03;;
1258;SDS011;619;51.472;6.628;2022-12-24T11:07:57;17.40;;;5.80;;
1258;SDS011;619;51.472;6.628;2022-12-24T11:10:54;23.17;;;5.27;;
1258;SDS011;619;51.472;6.628;2022-12-24T11:13:25;21.07;;;6.90;;
1258;SDS011;619;51.472;6.628;2022-12-24T11:15:59;17.00;;;6.63;;
1258;SDS011;619;51.472;6.628;2022-12-24T11:18:37;27.03;;;6.47;;
1258;SDS011;619;51.472;6.628;2022-12-24T11:21:10;20.53;;;6.10;;
1258;SDS011;619;51.472;6.628;2022-12-24T11:23:47;18.30;;;6.30;;
1258;SDS011;619;51.472;6.628;2022-12-24T11:26:15;17.57;;;5.90;;
1258;SDS011;619;51.472;6.628;2022-12-24T11:29:02;17.80;;;6.30;;
1258;SDS011;619;51.472;6.628;2022-12-24T11:31:28;19.83;;;5.50;;
1258;SDS011;619;51.472;6.628;2022-12-24T11:33:56;16.10;;;6.27;;
1258;SDS011;619;51.472;6.628;2022-12-24T11:36:25;18.27;;;5.30;;
1258;SDS011;619;51.472;6.628;2022-12-24T11:38:55;19.57;;;5.40;;
1258;SDS011;619;51.472;6.628;2022-12-24T11:41:22;18.73;;;5.57;;
1258;SDS011;619;51.472;6.628;2022-12-24T11:43:58;17.53;;;6.07;;
1258;SDS011;619;51.472;6.628;2022-12-24T11:49:43;23.03;;;6.17;;
1258;SDS011;619;51.472;6.628;2022-12-24T11:52:09;19.37;;;6.10;;
1258;SDS011;619;51.472;6.628;2022-12-24T11:57:48;20.97;;;5.40;;
1258;SDS011;619;51.472;6.628;2022-12-24T12:00:18;21.93;;;6.10;;
1258;SDS011;619;51.472;6.628;2022-12-24T12:02:45;17.37;;;6.20;;
1258;SDS011;619;51.472;6.628;2022-12-24T12:05:16;16.73;;;5.90;;
1258;SDS011;619;51.472;6.628;2022-12-24T12:07:45;17.53;;;6.03;;
1258;SDS011;619;51.472;6.628;2022-12-24T12:12:49;23.17;;;6.27;;
1258;SDS011;619;51.472;6.628;2022-12-24T12:15:38;13.17;;;5.80;;
1258;SDS011;619;51.472;6.628;2022-12-24T12:18:18;12.37;;;5.63;;
1258;SDS011;619;51.472;6.628;2022-12-24T12:20:51;20.50;;;6.60;;
1258;SDS011;619;51.472;6.628;2022-12-24T12:23:25;12.37;;;5.80;;
1258;SDS011;619;51.472;6.628;2022-12-24T12:26:26;20.27;;;5.90;;
1258;SDS011;619;51.472;6.628;2022-12-24T12:28:58;17.97;;;5.73;;
1258;SDS011;619;51.472;6.628;2022-12-24T12:31:46;20.90;;;5.73;;
1258;SDS011;619;51.472;6.628;2022-12-24T12:34:25;18.53;;;5.77;;
1258;SDS011;619;51.472;6.628;2022-12-24T12:37:01;19.67;;;6.70;;
1258;SDS011;619;51.472;6.628;2022-12-24T12:39:40;15.40;;;6.20;;
1258;SDS011;619;51.472;6.628;2022-12-24T12:50:13;20.73;;;6.03;;
1258;SDS011;619;51.472;6.628;2022-12-24T12:52:58;19.20;;;6.47;;
1258;SDS011;619;51.472;6.628;2022-12-24T13:01:07;18.10;;;7.23;;
1258;SDS011;619;51.472;6.628;2022-12-24T13:03:56;26.17;;;5.47;;
1258;SDS011;619;51.472;6.628;2022-12-24T13:09:42;18.67;;;4.90;;
1258;SDS011;619;51.472;6.628;2022-12-24T13:12:41;15.80;;;5.70;;
1258;SDS011;619;51.472;6.628;2022-12-24T13:17:54;12.87;;;5.77;;
1258;SDS011;619;51.472;6.628;2022-12-24T13:20:32;18.53;;;7.00;;
1258;SDS011;619;51.472;6.628;2022-12-24T13:23:11;15.80;;;5.60;;
1258;SDS011;619;51.472;6.628;2022-12-24T13:25:42;20.57;;;6.67;;
1258;SDS011;619;51.472;6.628;2022-12-24T13:28:14;13.43;;;5.17;;
1258;SDS011;619;51.472;6.628;2022-12-24T13:30:42;13.83;;;7.50;;
1258;SDS011;619;51.472;6.628;2022-12-24T13:33:12;12.60;;;6.37;;
1258;SDS011;619;51.472;6.628;2022-12-24T13:36:00;17.57;;;6.73;;
1258;SDS011;619;51.472;6.628;2022-12-24T13:40:52;12.37;;;5.10;;
1258;SDS011;619;51.472;6.628;2022-12-24T13:43:18;18.70;;;6.57;;
1258;SDS011;619;51.472;6.628;2022-12-24T13:45:45;17.80;;;6.23;;
1258;SDS011;619;51.472;6.628;2022-12-24T13:48:21;22.37;;;6.40;;
1258;SDS011;619;51.472;6.628;2022-12-24T13:50:59;16.90;;;6.30;;
1258;SDS011;619;51.472;6.628;2022-12-24T13:53:42;16.00;;;6.10;;
1258;SDS011;619;51.472;6.628;2022-12-24T13:58:46;21.93;;;7.50;;
1258;SDS011;619;51.472;6.628;2022-12-24T14:01:15;19.83;;;10.20;;
1258;SDS011;619;51.472;6.628;2022-12-24T14:03:47;20.87;;;10.47;;
1258;SDS011;619;51.472;6.628;2022-12-24T14:08:52;18.97;;;7.03;;
1258;SDS011;619;51.472;6.628;2022-12-24T14:11:26;13.53;;;6.37;;
1258;SDS011;619;51.472;6.628;2022-12-24T14:14:03;20.77;;;7.07;;
1258;SDS011;619;51.472;6.628;2022-12-24T14:16:40;13.83;;;6.57;;
1258;SDS011;619;51.472;6.628;2022-12-24T14:19:11;21.17;;;6.90;;
1258;SDS011;619;51.472;6.628;2022-12-24T14:21:51;19.50;;;6.17;;
1258;SDS011;619;51.472;6.628;2022-12-24T14:24:41;16.10;;;6.27;;
1258;SDS011;619;51.472;6.628;2022-12-24T14:27:13;17.30;;;6.30;;
1258;SDS011;619;51.472;6.628;2022-12-24T14:29:47;20.67;;;7.80;;
1258;SDS011;619;51.472;6.628;2022-12-24T14:32:17;16.07;;;7.00;;
1258;SDS011;619;51.472;6.628;2022-12-24T14:34:42;21.20;;;7.53;;
1258;SDS011;619;51.472;6.628;2022-12-24T14:37:13;18.77;;;7.70;;
1258;SDS011;619;51.472;6.628;2022-12-24T14:39:43;15.60;;;7.00;;
1258;SDS011;619;51.472;6.628;2022-12-24T14:42:24;19.63;;;6.97;;
1258;SDS011;619;51.472;6.628;2022-12-24T14:47:50;17.00;;;6.00;;
1258;SDS011;619;51.472;6.628;2022-12-24T14:50:47;16.10;;;6.53;;
1258;SDS011;619;51.472;6.628;2022-12-24T14:56:14;18.97;;;6.57;;
1258;SDS011;619;51.472;6.628;2022-12-24T14:58:43;18.73;;;7.33;;
1258;SDS011;619;51.472;6.628;2022-12-24T15:03:58;23.93;;;9.00;;
1258;SDS011;619;51.472;6.628;2022-12-24T15:06:51;18.43;;;6.37;;
1258;SDS011;619;51.472;6.628;2022-12-24T15:11:54;11.73;;;6.60;;
1258;SDS011;619;51.472;6.628;2022-12-24T15:14:23;23.03;;;9.20;;
1258;SDS011;619;51.472;6.628;2022-12-24T15:16:55;15.23;;;7.87;;
1258;SDS011;619;51.472;6.628;2022-12-24T15:19:48;19.83;;;8.27;;
1258;SDS011;619;51.472;6.628;2022-12-24T15:22:26;23.27;;;8.53;;
1258;SDS011;619;51.472;6.628;2022-12-24T15:24:55;11.27;;;7.10;;
1258;SDS011;619;51.472;6.628;2022-12-24T15:27:25;15.53;;;7.47;;
1258;SDS011;619;51.472;6.628;2022-12-24T15:29:57;15.20;;;7.53;;
1258;SDS011;619;51.472;6.628;2022-12-24T15:32:23;13.30;;;7.50;;
1258;SDS011;619;51.472;6.628;2022-12-24T15:34:53;15.87;;;7.77;;
1258;SDS011;619;51.472;6.628;2022-12-24T15:40:07;22.57;;;8.10;;
1258;SDS011;619;51.472;6.628;2022-12-24T15:42:35;18.47;;;6.70;;
1258;SDS011;619;51.472;6.628;2022-12-24T15:45:22;16.77;;;7.37;;
1258;SDS011;619;51.472;6.628;2022-12-24T15:47:52;20.33;;;7.37;;
1258;SDS011;619;51.472;6.628;2022-12-24T15:50:25;12.80;;;6.60;;
1258;SDS011;619;51.472;6.628;2022-12-24T15:53:04;15.57;;;7.60;;
1258;SDS011;619;51.472;6.628;2022-12-24T16:03:37;16.50;;;8.70;;
1258;SDS011;619;51.472;6.628;2022-12-24T16:06:08;19.40;;;9.20;;
1258;SDS011;619;51.472;6.628;2022-12-24T16:08:39;19.40;;;8.17;;
1258;SDS011;619;51.472;6.628;2022-12-24T16:13:52;18.90;;;7.97;;
1258;SDS011;619;51.472;6.628;2022-12-24T16:16:36;21.40;;;11.67;;
1258;SDS011;619;51.472;6.628;2022-12-24T16:19:06;24.20;;;11.63;;
1258;SDS011;619;51.472;6.628;2022-12-24T16:21:50;23.70;;;10.67;;
1258;SDS011;619;51.472;6.628;2022-12-24T16:24:22;15.87;;;9.57;;
1258;SDS011;619;51.472;6.628;2022-12-24T16:26:50;19.30;;;10.37;;
1258;SDS011;619;51.472;6.628;2022-12-24T16:29:18;20.33;;;9.30;;
1258;SDS011;619;51.472;6.628;2022-12-24T16:31:45;21.20;;;10.00;;
1258;SDS011;619;51.472;6.628;2022-12-24T16:34:15;21.63;;;11.00;;
